createdAt,value
2018-12-23T00:00:20.895Z,47.53
2018-12-23T00:02:49.840Z,47.70
2018-12-23T00:05:18.013Z,47.17
2018-12-23T00:07:46.189Z,49.07
2018-12-23T00:10:16.023Z,49.37
2018-12-23T00:12:44.224Z,49.33
2018-12-23T00:15:12.675Z,46.37
2018-12-23T00:17:41.579Z,50.07
2018-12-23T00:20:10.364Z,47.47
2018-12-23T00:22:39.448Z,48.77
2018-12-23T00:25:07.676Z,47.07
2018-12-23T00:27:35.828Z,47.03
2018-12-23T00:30:05.284Z,47.23
2018-12-23T00:32:33.563Z,51.87
2018-12-23T00:35:01.739Z,49.07
2018-12-23T00:37:30.672Z,47.37
2018-12-23T00:39:58.899Z,51.00
2018-12-23T00:42:27.926Z,50.50
2018-12-23T00:44:56.940Z,47.77
2018-12-23T00:47:25.113Z,50.80
2018-12-23T00:49:53.298Z,48.60
2018-12-23T00:52:21.605Z,49.67
2018-12-23T00:54:49.766Z,53.07
2018-12-23T00:57:19.303Z,50.20
2018-12-23T00:59:47.877Z,50.67
2018-12-23T01:02:16.063Z,49.23
2018-12-23T01:04:44.263Z,49.10
2018-12-23T01:07:12.780Z,51.63
2018-12-23T01:09:40.939Z,50.20
2018-12-23T01:12:09.161Z,51.23
2018-12-23T01:14:37.344Z,50.23
2018-12-23T01:17:05.508Z,52.83
2018-12-23T01:19:33.662Z,54.47
2018-12-23T01:22:01.852Z,53.80
2018-12-23T01:24:30.132Z,53.53
2018-12-23T01:26:58.307Z,50.17
2018-12-23T01:29:26.556Z,52.63
2018-12-23T01:31:54.904Z,48.40
2018-12-23T01:34:23.069Z,50.97
2018-12-23T01:36:51.251Z,48.83
2018-12-23T01:39:19.428Z,49.13
2018-12-23T01:41:47.666Z,51.60
2018-12-23T01:44:15.860Z,52.67
2018-12-23T01:46:44.041Z,50.83
2018-12-23T01:49:12.211Z,55.23
2018-12-23T01:51:40.394Z,47.90
2018-12-23T01:54:09.375Z,49.23
2018-12-23T01:56:37.583Z,51.60
2018-12-23T01:59:05.783Z,48.97
2018-12-23T02:01:36.315Z,51.57
2018-12-23T02:04:04.508Z,49.97
2018-12-23T02:06:32.719Z,53.70
2018-12-23T02:09:00.971Z,50.40
2018-12-23T02:11:29.165Z,49.93
2018-12-23T02:13:58.135Z,54.30
2018-12-23T02:16:26.334Z,54.00
2018-12-23T02:18:54.521Z,55.43
2018-12-23T02:21:22.682Z,54.90
2018-12-23T02:23:50.853Z,52.10
2018-12-23T02:26:19.101Z,49.80
2018-12-23T02:28:47.694Z,54.73
2018-12-23T02:31:15.916Z,52.23
2018-12-23T02:33:44.158Z,53.40
2018-12-23T02:36:12.311Z,52.57
2018-12-23T02:38:40.511Z,55.63
2018-12-23T02:41:08.732Z,52.53
2018-12-23T02:43:37.267Z,57.83
2018-12-23T02:46:05.451Z,58.30
2018-12-23T02:48:33.678Z,50.53
2018-12-23T02:51:01.865Z,50.27
2018-12-23T02:53:30.054Z,51.03
2018-12-23T02:55:58.215Z,49.37
2018-12-23T02:58:26.426Z,50.87
2018-12-23T03:00:54.603Z,50.37
2018-12-23T03:03:22.766Z,54.33
2018-12-23T03:05:50.970Z,50.67
2018-12-23T03:08:19.145Z,49.80
2018-12-23T03:10:47.373Z,47.00
2018-12-23T03:13:15.626Z,52.50
2018-12-23T03:15:43.794Z,49.67
2018-12-23T03:18:12.099Z,50.67
2018-12-23T03:20:40.344Z,49.37
2018-12-23T03:23:08.537Z,50.50
2018-12-23T03:25:36.685Z,49.60
2018-12-23T03:28:04.889Z,51.23
2018-12-23T03:30:33.070Z,51.17
2018-12-23T03:33:01.922Z,51.43
2018-12-23T03:35:30.239Z,50.73
2018-12-23T03:37:58.405Z,55.23
2018-12-23T03:40:27.240Z,56.57
2018-12-23T03:42:55.428Z,51.70
2018-12-23T03:45:23.600Z,51.77
2018-12-23T03:47:51.784Z,52.27
2018-12-23T03:50:19.993Z,51.67
2018-12-23T03:52:48.176Z,56.23
2018-12-23T03:55:16.345Z,51.43
2018-12-23T03:57:44.636Z,51.07
2018-12-23T04:00:12.817Z,53.67
2018-12-23T04:02:41.008Z,55.63
2018-12-23T04:05:09.200Z,52.33
2018-12-23T04:07:37.361Z,52.00
2018-12-23T04:10:06.323Z,57.50
2018-12-23T04:12:34.913Z,52.40
2018-12-23T04:15:03.210Z,53.23
2018-12-23T04:17:31.381Z,50.90
2018-12-23T04:19:59.582Z,53.63
2018-12-23T04:22:27.778Z,53.17
2018-12-23T04:24:55.955Z,49.07
2018-12-23T04:27:24.145Z,48.70
2018-12-23T04:29:52.328Z,50.00
2018-12-23T04:32:20.657Z,50.20
2018-12-23T04:34:48.857Z,49.20
2018-12-23T04:37:17.230Z,50.13
2018-12-23T04:39:45.646Z,49.53
2018-12-23T04:42:13.952Z,51.30
2018-12-23T04:44:42.218Z,52.33
2018-12-23T04:47:10.419Z,50.33
2018-12-23T04:49:38.639Z,51.47
2018-12-23T04:52:06.833Z,48.03
2018-12-23T04:54:35.004Z,52.73
2018-12-23T04:57:03.197Z,49.70
2018-12-23T04:59:31.382Z,51.13
2018-12-23T05:01:59.570Z,54.87
2018-12-23T05:04:27.816Z,52.20
2018-12-23T05:06:55.996Z,49.43
2018-12-23T05:09:24.196Z,48.70
2018-12-23T05:11:52.393Z,50.67
2018-12-23T05:14:20.600Z,50.63
2018-12-23T05:16:48.796Z,53.10
2018-12-23T05:19:17.022Z,50.07
2018-12-23T05:21:45.191Z,53.23
2018-12-23T05:24:13.378Z,51.57
2018-12-23T05:26:41.587Z,51.13
2018-12-23T05:29:09.764Z,49.73
2018-12-23T05:31:37.969Z,53.53
2018-12-23T05:34:06.159Z,55.27
2018-12-23T05:36:34.330Z,50.53
2018-12-23T05:39:02.517Z,50.73
2018-12-23T05:41:31.017Z,49.13
2018-12-23T05:43:59.200Z,51.73
2018-12-23T05:46:27.392Z,49.70
2018-12-23T05:48:55.616Z,52.03
2018-12-23T05:51:23.890Z,56.30
2018-12-23T05:53:52.783Z,51.23
2018-12-23T05:56:20.982Z,52.00
2018-12-23T05:58:49.161Z,53.43
2018-12-23T06:01:17.327Z,50.07
2018-12-23T06:03:45.534Z,53.03
2018-12-23T06:06:13.924Z,50.60
2018-12-23T06:08:42.143Z,52.83
2018-12-23T06:11:10.341Z,52.97
2018-12-23T06:13:38.534Z,52.57
2018-12-23T06:16:06.689Z,51.90
2018-12-23T06:18:34.901Z,56.37
2018-12-23T06:21:03.150Z,50.80
2018-12-23T06:23:31.348Z,52.17
2018-12-23T06:25:59.557Z,54.37
2018-12-23T06:28:27.755Z,52.27
2018-12-23T06:30:55.967Z,53.20
2018-12-23T06:33:24.140Z,53.40
2018-12-23T06:35:52.294Z,53.20
2018-12-23T06:38:20.466Z,53.53
2018-12-23T06:40:48.637Z,52.20
2018-12-23T06:43:16.799Z,54.37
2018-12-23T06:45:44.988Z,52.17
2018-12-23T06:48:13.151Z,54.90
2018-12-23T06:50:41.330Z,52.40
2018-12-23T06:53:09.529Z,49.37
2018-12-23T06:55:37.719Z,53.30
2018-12-23T06:58:06.489Z,51.70
2018-12-23T07:00:34.720Z,53.60
2018-12-23T07:03:03.608Z,49.43
2018-12-23T07:05:32.687Z,50.27
2018-12-23T07:08:02.046Z,51.33
2018-12-23T07:10:30.226Z,50.43
2018-12-23T07:12:58.394Z,51.70
2018-12-23T07:15:26.592Z,49.67
2018-12-23T07:17:54.810Z,47.60
2018-12-23T07:20:23.990Z,51.70
2018-12-23T07:22:52.305Z,49.53
2018-12-23T07:25:20.459Z,50.70
2018-12-23T07:27:48.620Z,49.50
2018-12-23T07:30:16.813Z,48.63
2018-12-23T07:32:44.980Z,49.47
2018-12-23T07:35:13.236Z,47.07
2018-12-23T07:37:41.658Z,48.73
2018-12-23T07:40:09.833Z,47.60
2018-12-23T07:42:38.004Z,47.10
2018-12-23T07:45:06.607Z,48.23
2018-12-23T07:47:34.790Z,50.27
2018-12-23T07:50:03.035Z,47.80
2018-12-23T07:52:31.239Z,47.30
2018-12-23T07:54:59.407Z,47.17
2018-12-23T07:57:27.565Z,47.07
2018-12-23T07:59:55.744Z,46.13
2018-12-23T08:02:23.926Z,47.63
2018-12-23T08:04:52.135Z,47.47
2018-12-23T08:07:20.651Z,46.13
2018-12-23T08:09:48.809Z,45.40
2018-12-23T08:12:16.993Z,46.60
2018-12-23T08:14:45.197Z,45.10
2018-12-23T08:17:13.364Z,46.40
2018-12-23T08:19:41.769Z,47.40
2018-12-23T08:22:10.003Z,46.30
2018-12-23T08:24:38.225Z,46.43
2018-12-23T08:27:06.583Z,44.67
2018-12-23T08:29:34.780Z,46.30
2018-12-23T08:32:03.024Z,46.23
2018-12-23T08:34:31.203Z,45.83
2018-12-23T08:36:59.415Z,47.43
2018-12-23T08:39:27.710Z,47.43
2018-12-23T08:41:55.905Z,48.07
2018-12-23T08:44:24.113Z,48.07
2018-12-23T08:46:52.258Z,47.10
2018-12-23T08:49:20.419Z,46.63
2018-12-23T08:51:48.621Z,48.17
2018-12-23T08:54:16.815Z,49.13
2018-12-23T08:56:46.550Z,48.00
2018-12-23T08:59:14.736Z,48.17
2018-12-23T09:01:42.926Z,49.10
2018-12-23T09:04:11.114Z,49.03
2018-12-23T09:06:39.357Z,49.43
2018-12-23T09:09:08.329Z,50.00
2018-12-23T09:11:42.864Z,47.93
2018-12-23T09:14:07.044Z,48.83
2018-12-23T09:16:35.235Z,48.87
2018-12-23T09:19:03.456Z,46.87
2018-12-23T09:21:31.648Z,47.87
2018-12-23T09:23:59.806Z,48.63
2018-12-23T09:26:28.903Z,48.70
2018-12-23T09:28:57.090Z,48.37
2018-12-23T09:31:25.261Z,48.57
2018-12-23T09:33:53.844Z,48.10
2018-12-23T09:36:22.044Z,48.20
2018-12-23T09:38:50.250Z,48.30
2018-12-23T09:41:18.415Z,49.23
2018-12-23T09:43:47.554Z,51.50
2018-12-23T09:46:15.700Z,50.90
2018-12-23T09:48:45.363Z,49.07
2018-12-23T09:51:14.182Z,49.27
2018-12-23T09:53:43.018Z,51.63
2018-12-23T09:56:11.197Z,51.10
2018-12-23T09:58:39.451Z,54.03
2018-12-23T10:01:07.608Z,51.70
2018-12-23T10:03:35.792Z,53.23
2018-12-23T10:06:04.057Z,51.93
2018-12-23T10:08:32.946Z,52.03
2018-12-23T10:11:01.786Z,51.17
2018-12-23T10:13:29.956Z,53.37
2018-12-23T10:15:58.127Z,55.53
2018-12-23T10:18:27.805Z,54.07
2018-12-23T10:20:56.004Z,52.80
2018-12-23T10:23:24.395Z,53.43
2018-12-23T10:25:52.635Z,51.83
2018-12-23T10:28:20.873Z,53.80
2018-12-23T10:30:49.055Z,55.03
2018-12-23T10:33:17.596Z,54.43
2018-12-23T10:35:45.741Z,56.20
2018-12-23T10:38:18.321Z,55.73
2018-12-23T10:40:45.608Z,54.73
2018-12-23T10:43:13.788Z,55.07
2018-12-23T10:45:41.986Z,55.60
2018-12-23T10:48:10.998Z,55.50
2018-12-23T10:50:39.787Z,54.90
2018-12-23T10:53:09.710Z,54.93
2018-12-23T10:55:39.665Z,54.00
2018-12-23T10:58:08.010Z,55.20
2018-12-23T11:00:36.249Z,54.53
2018-12-23T11:03:04.610Z,56.23
2018-12-23T11:05:34.836Z,54.63
2018-12-23T11:08:03.061Z,54.13
2018-12-23T11:10:31.230Z,56.23
2018-12-23T11:12:59.412Z,53.63
2018-12-23T11:15:27.654Z,54.83
2018-12-23T11:17:55.816Z,57.47
2018-12-23T11:20:24.728Z,55.10
2018-12-23T11:22:54.626Z,56.30
2018-12-23T11:25:22.814Z,55.83
2018-12-23T11:27:51.001Z,56.17
2018-12-23T11:30:19.940Z,58.20
2018-12-23T11:32:48.114Z,58.53
2018-12-23T11:35:16.317Z,58.90
2018-12-23T11:37:44.524Z,56.57
2018-12-23T11:40:12.685Z,58.90
2018-12-23T11:42:41.520Z,57.80
2018-12-23T11:45:11.193Z,56.57
2018-12-23T11:47:39.390Z,56.90
2018-12-23T11:50:07.624Z,58.50
2018-12-23T11:52:35.842Z,58.10
2018-12-23T11:55:04.057Z,56.40
2018-12-23T11:57:33.129Z,55.50
2018-12-23T12:00:01.425Z,56.93
2018-12-23T12:02:31.161Z,53.50
2018-12-23T12:04:59.342Z,56.40
2018-12-23T12:07:29.387Z,53.70
2018-12-23T12:09:57.608Z,55.73
2018-12-23T12:12:25.783Z,54.87
2018-12-23T12:14:54.045Z,55.00
2018-12-23T12:17:22.204Z,56.07
2018-12-23T12:19:50.386Z,54.37
2018-12-23T12:22:18.587Z,53.33
2018-12-23T12:24:46.773Z,51.93
2018-12-23T12:27:14.963Z,51.97
2018-12-23T12:29:43.198Z,53.63
2018-12-23T12:32:11.492Z,54.97
2018-12-23T12:34:40.574Z,57.47
2018-12-23T12:37:08.868Z,51.20
2018-12-23T12:39:37.066Z,50.03
2018-12-23T12:42:06.128Z,50.60
2018-12-23T12:44:34.372Z,50.03
2018-12-23T12:47:02.673Z,50.37
2018-12-23T12:49:31.875Z,50.47
2018-12-23T12:52:00.984Z,51.20
2018-12-23T12:54:29.230Z,48.73
2018-12-23T12:56:57.435Z,49.07
2018-12-23T12:59:25.643Z,49.47
2018-12-23T13:01:53.873Z,49.83
2018-12-23T13:04:22.987Z,48.80
2018-12-23T13:06:51.234Z,49.70
2018-12-23T13:09:19.412Z,49.90
2018-12-23T13:11:47.595Z,49.63
2018-12-23T13:14:16.617Z,53.87
2018-12-23T13:16:44.807Z,52.90
2018-12-23T13:19:12.980Z,50.27
2018-12-23T13:21:42.544Z,51.33
2018-12-23T13:24:10.770Z,54.53
2018-12-23T13:26:39.287Z,49.60
2018-12-23T13:29:07.474Z,54.33
2018-12-23T13:31:35.651Z,48.83
2018-12-23T13:34:03.820Z,50.07
2018-12-23T13:36:32.033Z,48.13
2018-12-23T13:39:00.195Z,51.83
2018-12-23T13:45:52.540Z,47.47
2018-12-23T13:48:38.453Z,47.67
2018-12-23T13:51:27.313Z,47.40
2018-12-23T13:54:08.158Z,45.93
2018-12-23T13:57:11.563Z,46.53
2018-12-23T14:00:08.809Z,44.50
2018-12-23T14:03:01.253Z,47.43
2018-12-23T14:06:14.139Z,46.00
2018-12-23T14:09:17.307Z,47.57
2018-12-23T14:11:57.932Z,45.87
2018-12-23T14:14:27.955Z,46.53
2018-12-23T14:16:58.093Z,46.57
2018-12-23T14:19:28.464Z,46.70
2018-12-23T14:21:58.522Z,48.13
2018-12-23T14:24:31.250Z,47.00
2018-12-23T14:27:03.486Z,48.23
2018-12-23T14:29:34.785Z,47.90
2018-12-23T14:32:04.727Z,48.90
2018-12-23T14:34:36.912Z,49.00
2018-12-23T14:37:07.236Z,52.93
2018-12-23T14:39:37.222Z,49.90
2018-12-23T14:42:07.715Z,48.87
2018-12-23T14:44:40.049Z,49.50
2018-12-23T14:47:14.423Z,46.00
2018-12-23T14:49:44.340Z,47.40
2018-12-23T14:52:14.684Z,46.47
2018-12-23T14:54:44.727Z,46.73
2018-12-23T14:57:14.980Z,46.90
2018-12-23T14:59:45.486Z,46.80
2018-12-23T15:02:17.669Z,47.37
2018-12-23T15:04:48.332Z,48.03
2018-12-23T15:07:18.412Z,47.77
2018-12-23T15:09:48.649Z,46.07
2018-12-23T15:12:18.652Z,46.57
2018-12-23T15:14:48.667Z,47.07
2018-12-23T15:17:19.020Z,46.93
2018-12-23T15:19:48.888Z,47.47
2018-12-23T15:22:18.781Z,46.63
2018-12-23T15:24:48.865Z,46.77
2018-12-23T15:27:18.876Z,46.87
2018-12-23T15:29:49.762Z,46.53
2018-12-23T15:32:19.752Z,48.23
2018-12-23T15:34:53.005Z,47.57
2018-12-23T15:37:23.550Z,46.07
2018-12-23T15:39:56.003Z,46.00
2018-12-23T15:42:27.417Z,45.83
2018-12-23T15:44:57.461Z,47.17
2018-12-23T15:47:28.477Z,45.50
2018-12-23T15:49:58.953Z,45.93
2018-12-23T15:52:29.231Z,45.40
2018-12-23T15:54:59.133Z,45.67
2018-12-23T15:57:28.912Z,45.13
2018-12-23T15:59:58.900Z,46.77
2018-12-23T16:02:28.691Z,48.17
2018-12-23T16:04:59.187Z,45.97
2018-12-23T16:07:29.268Z,46.77
2018-12-23T16:09:59.781Z,46.57
2018-12-23T16:12:29.710Z,46.03
2018-12-23T16:14:59.658Z,47.00
2018-12-23T16:17:30.338Z,46.60
2018-12-23T16:20:01.394Z,45.43
2018-12-23T16:22:31.313Z,45.73
2018-12-23T16:25:01.609Z,47.13
2018-12-23T16:27:31.648Z,46.17
2018-12-23T16:30:01.640Z,47.37
2018-12-23T16:32:32.020Z,45.87
2018-12-23T16:35:01.927Z,46.60
2018-12-23T16:37:31.821Z,46.03
2018-12-23T16:40:03.465Z,46.73
2018-12-23T16:42:34.808Z,47.90
2018-12-23T16:45:06.500Z,45.03
2018-12-23T16:47:39.875Z,45.30
2018-12-23T16:50:10.114Z,45.73
2018-12-23T16:52:40.643Z,46.40
2018-12-23T16:55:10.448Z,46.70
2018-12-23T16:57:40.474Z,47.57
2018-12-23T17:00:14.161Z,47.63
2018-12-23T17:02:44.040Z,46.53
2018-12-23T17:05:14.182Z,46.53
2018-12-23T17:07:45.346Z,47.97
2018-12-23T17:10:19.220Z,46.57
2018-12-23T17:12:49.097Z,48.87
2018-12-23T17:15:19.100Z,47.37
2018-12-23T17:17:49.108Z,47.60
2018-12-23T17:20:19.087Z,47.13
2018-12-23T17:22:49.036Z,48.50
2018-12-23T17:25:20.598Z,48.67
2018-12-23T17:27:52.587Z,47.83
2018-12-23T17:30:23.701Z,48.57
2018-12-23T17:32:53.727Z,48.60
2018-12-23T17:35:23.679Z,49.47
2018-12-23T17:37:54.378Z,47.23
2018-12-23T17:40:24.928Z,48.43
2018-12-23T17:42:55.028Z,50.77
2018-12-23T17:45:25.045Z,48.00
2018-12-23T17:47:57.708Z,49.57
2018-12-23T17:50:29.374Z,49.90
2018-12-23T17:52:59.245Z,48.73
2018-12-23T17:55:29.034Z,50.13
2018-12-23T17:57:58.946Z,51.30
2018-12-23T18:00:28.949Z,51.97
2018-12-23T18:03:01.117Z,53.73
2018-12-23T18:05:32.720Z,52.93
2018-12-23T18:08:05.157Z,54.37
2018-12-23T18:10:35.593Z,55.33
2018-12-23T18:13:07.882Z,57.47
2018-12-23T18:15:41.263Z,58.20
2018-12-23T18:18:14.650Z,58.90
2018-12-23T18:20:45.160Z,53.73
2018-12-23T18:23:15.264Z,56.00
2018-12-23T18:25:45.816Z,53.77
2018-12-23T18:28:17.357Z,56.70
2018-12-23T18:30:49.381Z,54.63
2018-12-23T18:33:19.334Z,56.63
2018-12-23T18:35:49.656Z,54.43
2018-12-23T18:38:19.991Z,55.27
2018-12-23T18:40:50.303Z,55.83
2018-12-23T18:43:20.218Z,55.47
2018-12-23T18:45:51.918Z,56.40
2018-12-23T18:48:21.923Z,52.80
2018-12-23T18:50:51.914Z,56.67
2018-12-23T18:53:21.778Z,54.53
2018-12-23T18:55:51.711Z,55.10
2018-12-23T18:58:21.582Z,54.47
2018-12-23T19:00:51.699Z,55.27
2018-12-23T19:03:21.723Z,55.63
2018-12-23T19:05:55.822Z,54.90
2018-12-23T19:08:29.839Z,54.57
2018-12-23T19:11:09.979Z,55.50
2018-12-23T19:14:22.376Z,53.73
2018-12-23T19:17:23.325Z,53.80
2018-12-23T19:20:26.235Z,52.70
2018-12-23T19:23:16.887Z,54.30
2018-12-23T19:26:30.129Z,55.23
2018-12-23T19:29:07.266Z,57.57
2018-12-23T19:32:16.032Z,56.83
2018-12-23T19:35:31.274Z,55.13
2018-12-23T19:38:24.824Z,59.87
2018-12-23T19:41:41.088Z,56.80
2018-12-23T19:44:39.303Z,59.10
2018-12-23T19:47:37.824Z,59.60
2018-12-23T19:50:35.410Z,60.30
2018-12-23T19:53:46.443Z,57.23
2018-12-23T19:56:36.972Z,58.93
2018-12-23T19:59:40.340Z,59.53
2018-12-23T20:02:29.607Z,59.73
2018-12-23T20:05:21.619Z,58.57
2018-12-23T20:08:17.198Z,55.80
2018-12-23T20:11:27.901Z,58.70
2018-12-23T20:14:40.115Z,55.90
2018-12-23T20:17:29.085Z,57.60
2018-12-23T20:20:14.845Z,55.07
2018-12-23T20:22:54.584Z,54.47
2018-12-23T20:25:36.816Z,55.60
2018-12-23T20:28:41.167Z,54.53
2018-12-23T20:31:43.776Z,54.63
2018-12-23T20:34:23.762Z,54.53
2018-12-23T20:37:09.518Z,56.27
2018-12-23T20:40:15.275Z,59.77
2018-12-23T20:43:09.647Z,69.83
2018-12-23T20:46:21.781Z,66.73
2018-12-23T20:49:38.153Z,64.60
2018-12-23T20:52:41.087Z,66.77
2018-12-23T20:55:37.637Z,66.07
2018-12-23T20:58:34.369Z,67.87
2018-12-23T21:01:36.953Z,60.17
2018-12-23T21:04:42.832Z,63.17
2018-12-23T21:07:35.376Z,59.47
2018-12-23T21:10:30.564Z,63.73
2018-12-23T21:13:29.218Z,62.60
2018-12-23T21:16:18.493Z,58.40
2018-12-23T21:19:30.551Z,65.37
2018-12-23T21:22:05.402Z,63.60
2018-12-23T21:25:23.827Z,64.30
2018-12-23T21:28:27.128Z,65.23
2018-12-23T21:31:37.685Z,63.10
2018-12-23T21:34:51.274Z,64.87
2018-12-23T21:37:34.345Z,61.10
2018-12-23T21:40:26.121Z,57.97
2018-12-23T21:43:28.972Z,64.67
2018-12-23T21:46:30.117Z,61.73
2018-12-23T21:49:28.291Z,62.23
2018-12-23T21:52:08.293Z,55.77
2018-12-23T21:54:58.794Z,56.37
2018-12-23T21:57:51.699Z,57.47
2018-12-23T22:01:08.819Z,59.70
2018-12-23T22:04:11.522Z,59.23
2018-12-23T22:06:58.532Z,62.33
2018-12-23T22:09:59.996Z,61.63
2018-12-23T22:12:55.634Z,59.60
2018-12-23T22:15:27.188Z,59.90
2018-12-23T22:17:57.161Z,60.47
2018-12-23T22:20:27.287Z,60.23
2018-12-23T22:23:00.117Z,61.67
2018-12-23T22:25:29.990Z,63.93
2018-12-23T22:27:59.896Z,64.37
2018-12-23T22:30:29.792Z,63.37
2018-12-23T22:33:00.297Z,63.97
2018-12-23T22:35:30.291Z,61.13
2018-12-23T22:38:00.187Z,63.10
2018-12-23T22:40:30.539Z,62.47
2018-12-23T22:43:00.345Z,67.53
2018-12-23T22:45:30.259Z,62.77
2018-12-23T22:48:00.122Z,65.53
2018-12-23T22:50:30.038Z,62.37
2018-12-23T22:53:00.081Z,63.77
2018-12-23T22:55:29.971Z,67.53
2018-12-23T22:57:59.795Z,61.53
2018-12-23T23:00:32.266Z,61.20
2018-12-23T23:03:09.229Z,63.00
2018-12-23T23:05:38.809Z,63.07
2018-12-23T23:08:08.584Z,59.20
2018-12-23T23:10:39.189Z,59.73
2018-12-23T23:13:09.051Z,59.97
2018-12-23T23:15:38.862Z,60.77
2018-12-23T23:18:08.653Z,58.57
2018-12-23T23:20:38.509Z,58.90
2018-12-23T23:23:08.355Z,59.43
2018-12-23T23:25:38.077Z,58.70
2018-12-23T23:28:07.920Z,57.33
2018-12-23T23:30:38.962Z,52.93
2018-12-23T23:33:08.755Z,57.47
2018-12-23T23:35:38.523Z,57.40
2018-12-23T23:38:08.297Z,57.23
2018-12-23T23:40:38.050Z,54.80
2018-12-23T23:43:07.809Z,58.07
2018-12-23T23:45:37.595Z,56.10
2018-12-23T23:48:07.404Z,57.33
2018-12-23T23:50:37.157Z,57.57
2018-12-23T23:53:06.925Z,57.50
2018-12-23T23:55:36.835Z,58.20
2018-12-23T23:58:06.612Z,55.77
